CheckWX is a tool to help pilots better visualize weather data.  It is not intended as a substitute for an official pre-flight weather briefing.

02:42:39 UTC

KDNS METAR
Denison Municipal Airport
Denison, Iowa, USA
Current

8 mins ago

KDNS 210235Z AUTO 00000KT 10SM CLR M07/M09 A3065 RMK AO2
Observed
Feb-21 @ 02:35 UTC
Visibility
10 SM
Flight Rules
VFR
Cloud Levels
  • Clear skies
Temperature
-7°C / 19°F
Dewpoint
-9°C / 16°F
Humidity
86%
Altimeter
30.65" Hg
Pressure
1037.92 hPa
Previous

28 mins ago

KDNS 210215Z AUTO 21006KT 10SM CLR M07/M09 A3066 RMK AO2
Observed
Feb-21 @ 02:15 UTC
Wind
  • 210° at 6 KTS
Visibility
10 SM
Flight Rules
VFR
Cloud Levels
  • Clear skies
Temperature
-7°C / 19°F
Dewpoint
-9°C / 16°F
Humidity
86%
Altimeter
30.66" Hg
Pressure
1038.32 hPa
Previous

48 mins ago

KDNS 210155Z AUTO 20005KT 10SM CLR M07/M09 A3066 RMK AO2
Observed
Feb-21 @ 01:55 UTC
Wind
  • 200° at 5 KTS
Visibility
10 SM
Flight Rules
VFR
Cloud Levels
  • Clear skies
Temperature
-7°C / 19°F
Dewpoint
-9°C / 16°F
Humidity
86%
Altimeter
30.66" Hg
Pressure
1038.32 hPa